Map

Track Data

SID SEASON NUMBER BASIN SUBBASIN NAME ISO_TIME NATURE LAT LON WMO_WIND WMO_PRES WMO_AGENCY TRACK_TYPE DIST2LAND LANDFALL IFLAG USA_AGENCY USA_ATCF_ID USA_LAT USA_LON USA_RECORD USA_STATUS USA_WIND USA_PRES USA_SSHS USA_R34_NE USA_R34_SE USA_R34_SW USA_R34_NW USA_R50_NE USA_R50_SE USA_R50_SW USA_R50_NW USA_R64_NE USA_R64_SE USA_R64_SW USA_R64_NW USA_POCI USA_ROCI USA_RMW USA_EYE TOKYO_LAT TOKYO_LON TOKYO_GRADE TOKYO_WIND TOKYO_PRES TOKYO_R50_DIR TOKYO_R50_LONG TOKYO_R50_SHORT TOKYO_R30_DIR TOKYO_R30_LONG TOKYO_R30_SHORT TOKYO_LAND CMA_LAT CMA_LON CMA_CAT CMA_WIND CMA_PRES HKO_LAT HKO_LON HKO_CAT HKO_WIND HKO_PRES NEWDELHI_LAT NEWDELHI_LON NEWDELHI_GRADE NEWDELHI_WIND NEWDELHI_PRES NEWDELHI_CI NEWDELHI_DP NEWDELHI_POCI REUNION_LAT REUNION_LON REUNION_TYPE REUNION_WIND REUNION_PRES REUNION_TNUM REUNION_CI REUNION_RMW REUNION_R34_NE REUNION_R34_SE REUNION_R34_SW REUNION_R34_NW REUNION_R50_NE REUNION_R50_SE REUNION_R50_SW REUNION_R50_NW REUNION_R64_NE REUNION_R64_SE REUNION_R64_SW REUNION_R64_NW BOM_LAT BOM_LON BOM_TYPE BOM_WIND BOM_PRES BOM_TNUM BOM_CI BOM_RMW BOM_R34_NE BOM_R34_SE BOM_R34_SW BOM_R34_NW BOM_R50_NE BOM_R50_SE BOM_R50_SW BOM_R50_NW BOM_R64_NE BOM_R64_SE BOM_R64_SW BOM_R64_NW BOM_ROCI BOM_POCI BOM_EYE BOM_POS_METHOD BOM_PRES_METHOD NADI_LAT NADI_LON NADI_CAT NADI_WIND NADI_PRES WELLINGTON_LAT WELLINGTON_LON WELLINGTON_WIND WELLINGTON_PRES DS824_LAT DS824_LON DS824_STAGE DS824_WIND DS824_PRES TD9636_LAT TD9636_LON TD9636_STAGE TD9636_WIND TD9636_PRES TD9635_LAT TD9635_LON TD9635_WIND TD9635_PRES TD9635_ROCI NEUMANN_LAT NEUMANN_LON NEUMANN_CLASS NEUMANN_WIND NEUMANN_PRES MLC_LAT MLC_LON MLC_CLASS MLC_WIND MLC_PRES USA_GUST BOM_GUST BOM_GUST_PER REUNION_GUST REUNION_GUST_PER USA_SEAHGT USA_SEARAD_NE USA_SEARAD_SE USA_SEARAD_SW USA_SEARAD_NW STORM_SPEED STORM_DIR
1944227N23084 1944 48 NI BB NOT_NAMED 1944-08-14 00:00:00 TS 23.1000 84.4000 main 0 0 _________O____ -1 23.1000 84.4000 TC 30 4 227
1944227N23084 1944 48 NI BB NOT_NAMED 1944-08-14 03:00:00 TS 22.9617 84.2416 main 0 0 _________PO___ -1 22.8925 84.1624 TC 30 23.1000 84.4000 1 5 230
1944227N23084 1944 48 NI BB NOT_NAMED 1944-08-14 06:00:00 TS 22.7821 83.9859 main 0 0 _________OP___ -1 22.7000 83.9000 TC 30 22.9052 84.1148 1 6 235
1944227N23084 1944 48 NI BB NOT_NAMED 1944-08-14 09:00:00 TS 22.6135 83.7003 main 0 0 _________PP___ -1 22.5350 83.6000 TC 30 22.7180 83.8341 1 6 239
1944227N23084 1944 48 NI BB NOT_NAMED 1944-08-14 12:00:00 TS 22.4734 83.4307 main 0 0 _________OP___ -1 22.4000 83.3000 TC 30 22.5469 83.5613 1 6 241
1944227N23084 1944 48 NI BB NOT_NAMED 1944-08-14 15:00:00 TS 22.3462 83.1713 main 0 0 _________PO___ -1 22.2924 83.0426 TC 30 22.4000 83.3000 1 5 243
1944227N23084 1944 48 NI BB NOT_NAMED 1944-08-14 18:00:00 TS 22.2411 82.9257 main 0 0 _________OP___ -1 22.2000 82.8000 TC 30 22.2822 83.0514 1 5 246
1944227N23084 1944 48 NI BB NOT_NAMED 1944-08-14 21:00:00 TS 22.1423 82.6828 main 0 0 _________PP___ -1 22.0999 82.5576 TC 30 22.1846 82.8081 1 5 247
1944227N23084 1944 48 NI BB NOT_NAMED 1944-08-15 00:00:00 TS 22.0474 82.4304 main 0 0 _________OP___ -1 22.0000 82.3000 TC 30 22.0947 82.5607 1 5 249
1944227N23084 1944 48 NI BB NOT_NAMED 1944-08-15 03:00:00 TS 21.9537 82.1538 main 0 0 _________PO___ -1 21.9075 82.0076 TC 30 22.0000 82.3000 1 6 249
1944227N23084 1944 48 NI BB NOT_NAMED 1944-08-15 06:00:00 TS 21.8410 81.8613 main 0 0 _________OP___ -1 21.8000 81.7000 TC 30 21.8820 82.0226 1 6 246
1944227N23084 1944 48 NI BB NOT_NAMED 1944-08-15 09:00:00 TS 21.7073 81.5688 main 0 0 _________PP___ -1 21.6574 81.4075 TC 30 21.7573 81.7301 1 6 244
1944227N23084 1944 48 NI BB NOT_NAMED 1944-08-15 12:00:00 TS 21.5644 81.2613 main 0 0 _________OP___ -1 21.5000 81.1000 TC 30 21.6289 81.4226 1 7 244
1944227N23084 1944 48 NI BB NOT_NAMED 1944-08-15 15:00:00 TS 21.4212 80.9287 main 0 0 _________PO___ -1 21.3425 80.7575 TC 30 21.5000 81.1000 1 7 245
1944227N23084 1944 48 NI BB NOT_NAMED 1944-08-15 18:00:00 TS 21.2790 80.6025 main 0 0 _________OP___ -1 21.2000 80.4000 TC 30 21.3580 80.8049 1 7 246
1944227N23084 1944 48 NI BB NOT_NAMED 1944-08-15 21:00:00 TS 21.1517 80.2887 main 0 0 _________PP___ -1 21.0846 80.0876 TC 30 21.2187 80.4898 1 7 250
1944227N23084 1944 48 NI BB NOT_NAMED 1944-08-16 00:00:00 TS 21.0476 79.9149 main 0 0 _________OP___ -1 21.0000 79.7000 TC 30 21.0952 80.1298 1 8 257
1944227N23084 1944 48 NI BB NOT_NAMED 1944-08-16 03:00:00 TS 20.9676 79.4187 main 0 0 _________PO___ -1 20.9351 79.1375 TC 30 21.0000 79.7000 1 10 263
1944227N23084 1944 48 NI BB NOT_NAMED 1944-08-16 06:00:00 TS 20.9213 78.8360 main 0 0 _________OP___ -1 20.9000 78.5000 TC 30 20.9426 79.1721 1 11 267
1944227N23084 1944 48 NI BB NOT_NAMED 1944-08-16 09:00:00 TS 20.9026 78.2377 main 0 0 _________PP___ -1 20.8923 77.9001 TC 30 20.9130 78.5752 1 11 269
1944227N23084 1944 48 NI AS NOT_NAMED 1944-08-16 12:00:00 TS 20.9009 77.6204 main 0 0 _________OP___ -1 20.9000 77.3000 TC 30 20.9018 77.9407 1 12 270
1944227N23084 1944 48 NI AS NOT_NAMED 1944-08-16 15:00:00 TS 20.8999 77.0000 main 0 0 _________PO___ -1 20.8998 76.7000 TC 30 20.9000 77.3000 1 11 270
1944227N23084 1944 48 NI AS NOT_NAMED 1944-08-16 18:00:00 TS 20.8982 76.3981 main 0 0 _________OP___ -1 20.9000 76.1000 TC 30 20.8963 76.6962 1 11 270
1944227N23084 1944 48 NI AS NOT_NAMED 1944-08-16 21:00:00 TS 20.8996 75.7964 main 0 0 _________PP___ -1 20.8998 75.5000 TC 30 20.8993 76.0929 1 11 270
1944227N23084 1944 48 NI AS NOT_NAMED 1944-08-17 00:00:00 TS 20.9013 75.1965 main 0 0 _________OP___ -1 20.9000 74.9000 TC 30 20.9026 75.4931 1 11 270
1944227N23084 1944 48 NI AS NOT_NAMED 1944-08-17 03:00:00 TS 20.9037 74.5963 main 0 0 _________PO___ -1 20.9074 74.2926 TC 30 20.9000 74.9000 1 11 271
1944227N23084 1944 48 NI AS NOT_NAMED 1944-08-17 06:00:00 TS 20.9111 74.0074 main 0 0 _________OP___ -1 20.9000 73.7000 TC 30 20.9222 74.3147 1 11 271
1944227N23084 1944 48 NI AS NOT_NAMED 1944-08-17 09:00:00 TS 20.9132 73.4397 main 0 0 _________PP___ -1 20.8947 73.1429 TC 30 20.9317 73.7365 1 11 267
1944227N23084 1944 48 NI AS NOT_NAMED 1944-08-17 12:00:00 TS 20.8502 72.8825 main 0 0 _________OP___ -1 20.8000 72.6000 TC 30 20.9004 73.1650 1 11 257
1944227N23084 1944 48 NI AS NOT_NAMED 1944-08-17 15:00:00 TS 20.6649 72.3249 main 52 52 _________PO___ -1 20.5298 72.0497 TC 33 20.8000 72.6000 1 12 245
1944227N23084 1944 48 NI AS NOT_NAMED 1944-08-17 18:00:00 TS 20.3638 71.7621 main 69 69 _________OP___ -1 20.2000 71.5000 TC 37 20.5275 72.0242 1 12 239
1944227N23084 1944 48 NI AS NOT_NAMED 1944-08-17 21:00:00 TS 20.0398 71.1969 main 88 81 _________PP___ -1 19.8825 70.9347 TC 41 20.1972 71.4591 1 12 241
1944227N23084 1944 48 NI AS NOT_NAMED 1944-08-18 00:00:00 TS 19.7966 70.6574 main 101 101 _________OP___ -1 19.7000 70.4000 TC 45 19.8933 70.9148 1 10 253
1944227N23084 1944 48 NI AS NOT_NAMED 1944-08-18 03:00:00 TS 19.7449 70.1677 main 128 124 _________PO___ -1 19.7898 69.9355 TC 45 19.7000 70.4000 3 9 275
1944227N23084 1944 48 NI AS NOT_NAMED 1944-08-18 06:00:00 TS 19.8676 69.7095 main 139 139 _________OP___ -1 20.0000 69.5000 TC 45 19.7353 69.9191 3 9 288
1944227N23084 1944 48 NI AS NOT_NAMED 1944-08-18 09:00:00 TS 20.0221 69.2537 main 154 152 _________PP___ -1 20.1574 69.0425 TC 45 19.8867 69.4649 3 9 291
1944227N23084 1944 48 NI AS NOT_NAMED 1944-08-18 12:00:00 TS 20.1974 68.8140 main 175 175 _________OP___ -1 20.3000 68.6000 TC 45 20.0948 69.0280 3 9 292
1944227N23084 1944 48 NI AS NOT_NAMED 1944-08-18 15:00:00 TS 20.3536 68.3999 main 190 190 _________PO___ -1 20.4073 68.1999 TC 41 20.3000 68.6000 3 8 290
1944227N23084 1944 48 NI AS NOT_NAMED 1944-08-18 18:00:00 TS 20.4744 68.0138 main 212 212 _________OP___ -1 20.5000 67.8000 TC 37 20.4553 68.1741 3 8 286
1944227N23084 1944 48 NI AS NOT_NAMED 1944-08-18 21:00:00 TS 20.5772 67.5944 main 232 232 _________PP___ -1 20.5978 67.3627 TC 33 20.5635 67.7490 3 8 283
1944227N23084 1944 48 NI AS NOT_NAMED 1944-08-19 00:00:00 TS 20.6600 67.1829 main 250 250 _________OP___ -1 20.7000 66.9000 TC 30 20.6399 67.3244 3 7 281
1944227N23084 1944 48 NI AS NOT_NAMED 1944-08-19 03:00:00 NR 20.7000 66.9000 main 273 __________O___ -1 TC 20.7000 66.9000 1 5 279

About IBTrACS Database

This database is a web-friendly format of International Best Track Archive for Climate Stewardship (IBTrACS), a global best track data archive curated by NOAA dating back to 1842.

Updated: 2021-10-21